Time;durP1;ratioP1;P1;durP2;ratioP2;P2;SDS_P1;SDS_P2;PMS_P1;PMS_P2;Temp;Humidity;BMP_temperature;BMP_pressure;BME280_temperature;BME280_humidity;BME280_pressure;Samples;Min_cycle;Max_cycle;Signal;HPM_P1;HPM_P2
2023/08/16 00:01:35;;;;;;;7.03;6.40;;;;;;;-145.68;100.00;73114.03;10491283;28;20272;-73
2023/08/16 00:06:36;;;;;;;7.53;5.93;;;;;;;-145.68;100.00;73156.00;10491420;28;20636;-74
2023/08/16 00:11:36;;;;;;;9.70;6.35;;;;;;;-145.68;100.00;73154.03;10490477;28;20222;-74
2023/08/16 00:16:37;;;;;;;9.55;7.32;;;;;;;-145.68;100.00;73192.00;10490789;28;20195;-74
2023/08/16 00:21:37;;;;;;;12.32;7.15;;;;;;;-145.68;100.00;73182.00;10490674;28;20262;-75
2023/08/16 00:26:38;;;;;;;13.75;7.53;;;;;;;-145.68;100.00;73178.00;10490501;28;20191;-74
2023/08/16 00:31:38;;;;;;;7.57;6.45;;;;;;;-145.68;100.00;73138.03;10490650;28;20219;-74
2023/08/16 00:36:38;;;;;;;8.48;6.57;;;;;;;-145.68;100.00;73162.00;10490999;28;20240;-75
2023/08/16 00:41:39;;;;;;;8.68;7.20;;;;;;;-145.68;100.00;73170.00;10488775;28;20813;-73
2023/08/16 00:46:39;;;;;;;8.27;6.90;;;;;;;-145.68;100.00;73168.00;10490354;28;20207;-74
2023/08/16 00:51:40;;;;;;;11.15;7.43;;;;;;;-145.68;100.00;73209.97;10471892;28;20242;-74
2023/08/16 00:56:40;;;;;;;9.27;7.55;;;;;;;-145.68;100.00;73203.97;10488462;28;20195;-73
2023/08/16 01:01:43;;;;;;;9.75;7.80;;;;;;;-145.68;100.00;73229.97;10487784;28;20203;-74
2023/08/16 01:06:43;;;;;;;9.02;8.13;;;;;;;-145.68;100.00;73227.97;10472295;28;20205;-74
2023/08/16 01:11:53;;;;;;;9.52;8.35;;;;;;;-145.68;100.00;73219.97;10488587;28;20218;-74
2023/08/16 01:16:54;;;;;;;10.18;8.50;;;;;;;-145.68;100.00;73231.97;10471631;28;20191;-75
2023/08/16 01:22:20;;;;;;;8.88;7.97;;;;;;;-145.68;100.00;73219.97;10488688;28;20243;-74
2023/08/16 01:27:21;;;;;;;10.85;7.57;;;;;;;-145.68;100.00;73217.97;10488316;28;20191;-74
2023/08/16 01:32:22;;;;;;;8.75;7.93;;;;;;;-145.68;100.00;73239.97;10488442;28;20885;-74
2023/08/16 01:37:23;;;;;;;9.43;8.20;;;;;;;-145.68;100.00;73231.97;10490507;28;20415;-75
2023/08/16 01:42:23;;;;;;;10.65;7.85;;;;;;;-145.68;100.00;73239.97;10495009;28;20696;-74
2023/08/16 01:47:24;;;;;;;9.98;8.32;;;;;;;-145.68;100.00;73233.97;10496741;28;20211;-75
2023/08/16 01:52:28;;;;;;;13.02;8.00;;;;;;;-145.68;100.00;73229.97;10494402;28;20215;-75
2023/08/16 01:57:28;;;;;;;11.68;7.65;;;;;;;-145.68;100.00;73223.97;10496549;28;20241;-74
2023/08/16 02:02:29;;;;;;;8.95;7.85;;;;;;;-145.68;100.00;73213.97;10477694;28;20183;-74
2023/08/16 02:07:29;;;;;;;8.27;7.30;;;;;;;-145.68;100.00;73203.97;10495643;28;20188;-75
2023/08/16 02:12:30;;;;;;;11.45;8.05;;;;;;;-145.68;100.00;73209.97;10495520;28;20581;-75
2023/08/16 02:17:30;;;;;;;11.13;7.85;;;;;;;-145.68;100.00;73213.97;10493741;28;20195;-75
2023/08/16 02:22:30;;;;;;;15.90;8.60;;;;;;;-145.68;100.00;73245.97;10494568;28;20695;-75
2023/08/16 02:27:34;;;;;;;12.52;7.50;;;;;;;-145.68;100.00;73213.97;10494231;28;20190;-74
2023/08/16 02:32:36;;;;;;;11.43;7.45;;;;;;;-145.68;100.00;73223.97;10494478;28;20223;-75
2023/08/16 02:37:37;;;;;;;9.75;7.38;;;;;;;-145.68;100.00;73221.97;10493955;28;20393;-74
2023/08/16 02:42:38;;;;;;;10.45;7.65;;;;;;;-145.68;100.00;73251.94;10494196;28;20184;-75
2023/08/16 02:47:38;;;;;;;11.38;7.88;;;;;;;-145.68;100.00;73233.97;10494095;28;20205;-75
2023/08/16 02:52:39;;;;;;;10.80;7.05;;;;;;;-145.68;100.00;73241.97;10492067;28;20221;-75
2023/08/16 02:57:39;;;;;;;11.25;7.35;;;;;;;-145.68;100.00;73227.97;10494177;28;20187;-75
2023/08/16 03:02:40;;;;;;;12.55;7.85;;;;;;;-145.68;100.00;73201.97;10479342;28;20556;-74
2023/08/16 03:07:40;;;;;;;10.48;7.35;;;;;;;-145.68;100.00;73207.97;10405485;28;20196;-75
2023/08/16 03:12:41;;;;;;;9.95;6.72;;;;;;;-145.68;100.00;73186.00;10401264;28;20245;-75
2023/08/16 03:17:42;;;;;;;7.03;6.32;;;;;;;-145.68;100.00;73180.00;10404136;28;20203;-75
2023/08/16 03:22:42;;;;;;;10.07;6.35;;;;;;;-145.68;100.00;73166.00;10402551;28;20233;-76
2023/08/16 03:27:45;;;;;;;12.00;6.47;;;;;;;-145.68;100.00;73168.00;10401400;28;20238;-75
2023/08/16 03:32:46;;;;;;;9.07;6.47;;;;;;;-145.68;100.00;73162.00;10401075;28;20290;-75
2023/08/16 03:37:47;;;;;;;9.07;6.78;;;;;;;-145.68;100.00;73166.00;10400986;28;20196;-75
2023/08/16 03:42:47;;;;;;;8.38;6.32;;;;;;;-145.68;100.00;73166.00;10402426;28;21198;-74
2023/08/16 03:47:47;;;;;;;8.23;7.15;;;;;;;-145.68;100.00;73186.00;10401037;28;20219;-75
2023/08/16 03:52:48;;;;;;;11.90;6.50;;;;;;;-145.68;100.00;73180.00;10400760;28;20263;-75
2023/08/16 03:57:49;;;;;;;8.85;6.80;;;;;;;-145.68;100.00;73168.00;10401934;28;20189;-76
2023/08/16 04:02:49;;;;;;;9.80;6.85;;;;;;;-145.68;100.00;73164.00;10403827;28;20185;-75
2023/08/16 04:07:49;;;;;;;8.75;6.55;;;;;;;-145.68;100.00;73172.00;10408242;28;20191;-75
2023/08/16 04:12:50;;;;;;;7.45;6.50;;;;;;;-145.68;100.00;73178.00;10406518;28;20219;-75
2023/08/16 04:17:50;;;;;;;8.35;6.53;;;;;;;-145.68;100.00;73156.00;10408208;28;20197;-75
2023/08/16 04:22:50;;;;;;;11.20;6.78;;;;;;;-145.68;100.00;73164.00;10406472;28;20233;-75
2023/08/16 04:27:51;;;;;;;9.70;7.28;;;;;;;-145.68;100.00;73142.03;10408013;28;20266;-74
2023/08/16 04:32:51;;;;;;;9.75;6.65;;;;;;;-145.68;100.00;73132.03;10406066;28;20251;-75
2023/08/16 04:37:52;;;;;;;9.75;7.55;;;;;;;-145.68;100.00;73120.03;10408189;28;20330;-74
2023/08/16 04:42:53;;;;;;;9.15;7.25;;;;;;;-145.68;100.00;73100.06;10406481;28;20185;-75
2023/08/16 04:47:55;;;;;;;10.70;7.10;;;;;;;-145.68;100.00;73084.06;10406090;28;20215;-75
2023/08/16 04:52:56;;;;;;;8.05;7.07;;;;;;;-145.68;100.00;73088.06;10421045;28;20229;-75
2023/08/16 04:57:59;;;;;;;18.05;12.45;;;;;;;-145.68;100.00;73100.06;10487840;28;20195;-75
2023/08/16 05:03:00;;;;;;;17.52;13.63;;;;;;;-145.68;100.00;73086.06;10487779;28;20176;-75
2023/08/16 05:08:00;;;;;;;24.70;15.18;;;;;;;-145.68;100.00;73092.06;10488577;28;20592;-75
2023/08/16 05:13:01;;;;;;;27.23;18.50;;;;;;;-145.68;100.00;73112.03;10493468;28;20298;-75
2023/08/16 05:18:01;;;;;;;22.02;19.75;;;;;;;-145.68;100.00;73112.03;10495199;28;20195;-74
2023/08/16 05:23:02;;;;;;;27.45;19.13;;;;;;;-145.68;100.00;73120.03;10490060;28;20555;-75
2023/08/16 05:28:03;;;;;;;19.95;17.75;;;;;;;-145.68;100.00;73118.03;10414889;28;20189;-75
2023/08/16 05:33:03;;;;;;;21.15;16.48;;;;;;;-145.68;100.00;73122.03;10426170;28;20224;-75
2023/08/16 05:38:05;;;;;;;20.05;16.23;;;;;;;-145.68;100.00;73126.03;10455051;28;20242;-75
2023/08/16 05:43:05;;;;;;;26.02;17.08;;;;;;;-145.68;100.00;73136.03;10480372;28;20532;-75
2023/08/16 05:48:06;;;;;;;24.08;18.00;;;;;;;-145.68;100.00;73144.03;10496480;28;20207;-75
2023/08/16 05:53:06;;;;;;;31.02;19.38;;;;;;;-145.68;100.00;73150.03;10495521;28;20280;-75
2023/08/16 05:58:06;;;;;;;24.85;18.33;;;;;;;-145.68;100.00;73132.03;10495805;28;20183;-74
2023/08/16 06:03:07;;;;;;;24.45;18.42;;;;;;;-145.68;100.00;73100.06;10495669;28;20600;-75
2023/08/16 06:08:08;;;;;;;27.00;17.13;;;;;;;-145.68;100.00;73098.06;10495938;28;20195;-75
2023/08/16 06:13:09;;;;;;;23.08;16.90;;;;;;;-145.68;100.00;73108.06;10494759;28;20699;-75
2023/08/16 06:18:09;;;;;;;23.92;16.55;;;;;;;-145.68;100.00;73094.06;10495278;28;20195;-75
2023/08/16 06:23:10;;;;;;;24.90;17.70;;;;;;;-145.68;100.00;73076.06;10476426;28;20226;-75
2023/08/16 06:28:11;;;;;;;21.70;16.85;;;;;;;-145.68;100.00;73062.09;10494845;28;20189;-75
2023/08/16 06:33:12;;;;;;;23.27;14.68;;;;;;;-145.68;100.00;73086.06;10493156;28;20219;-74
2023/08/16 06:38:13;;;;;;;17.15;13.63;;;;;;;-145.68;100.00;73064.09;10494795;28;20248;-75
2023/08/16 06:43:13;;;;;;;18.38;14.57;;;;;;;-145.68;100.00;73098.06;10494358;28;20266;-75
2023/08/16 06:48:14;;;;;;;16.65;12.35;;;;;;;-145.68;100.00;73080.06;10494819;28;20698;-75
2023/08/16 06:53:14;;;;;;;18.85;13.68;;;;;;;-145.68;100.00;73074.06;10493235;28;20218;-75
2023/08/16 06:58:15;;;;;;;18.73;14.82;;;;;;;-145.68;100.00;73068.06;10476962;28;20260;-75
2023/08/16 07:03:17;;;;;;;18.73;14.80;;;;;;;-145.68;100.00;73060.09;10493551;28;20206;-75
2023/08/16 07:08:17;;;;;;;16.67;13.05;;;;;;;-145.68;100.00;73064.09;10492632;28;20191;-74
2023/08/16 07:13:17;;;;;;;20.92;16.83;;;;;;;-145.68;100.00;73044.09;10451670;28;20234;-75
2023/08/16 07:18:18;;;;;;;21.98;19.38;;;;;;;-145.68;100.00;73030.09;10469600;28;20201;-75
2023/08/16 07:23:18;;;;;;;20.77;16.90;;;;;;;-145.68;100.00;73020.13;10491205;28;20223;-75
2023/08/16 07:28:19;;;;;;;22.50;18.25;;;;;;;-145.68;100.00;73036.09;10490798;28;20194;-75
2023/08/16 07:33:21;;;;;;;24.25;18.90;;;;;;;-145.68;100.00;73034.09;10491102;28;20207;-74
2023/08/16 07:38:21;;;;;;;27.70;20.27;;;;;;;-145.68;100.00;73078.06;10483008;28;20265;-75
2023/08/16 07:43:22;;;;;;;28.25;23.02;;;;;;;-145.68;100.00;73084.06;10439007;28;20252;-75
2023/08/16 07:48:22;;;;;;;27.25;22.77;;;;;;;-145.68;100.00;73090.06;10451201;28;20214;-76
2023/08/16 07:53:22;;;;;;;26.25;20.08;;;;;;;-145.68;100.00;73090.06;10450063;28;20228;-76
2023/08/16 07:58:23;;;;;;;25.60;20.42;;;;;;;-145.68;100.00;73088.06;10486183;28;20199;-77
2023/08/16 08:03:23;;;;;;;23.40;18.90;;;;;;;-145.68;100.00;73082.06;10491848;28;20183;-76
2023/08/16 08:08:24;;;;;;;20.40;18.15;;;;;;;-145.68;100.00;73056.09;10491759;28;20651;-76
2023/08/16 08:13:24;;;;;;;23.77;17.42;;;;;;;-145.68;100.00;72996.13;10491137;28;20219;-76
2023/08/16 08:18:24;;;;;;;19.10;16.83;;;;;;;-145.68;100.00;73014.13;10475454;28;20245;-76
2023/08/16 08:23:26;;;;;;;19.02;16.80;;;;;;;-145.68;100.00;72968.16;10449152;28;20227;-75
2023/08/16 08:28:26;;;;;;;20.63;16.85;;;;;;;-145.68;100.00;72992.13;10448742;28;20282;-76
2023/08/16 08:33:26;;;;;;;19.90;16.20;;;;;;;-145.68;100.00;72978.16;10448090;28;20222;-75
2023/08/16 08:38:27;;;;;;;23.30;18.70;;;;;;;-145.68;100.00;73012.13;10449652;28;20192;-75
2023/08/16 08:43:34;;;;;;;21.23;16.38;;;;;;;-145.68;100.00;73004.13;10447986;28;20530;-75
2023/08/16 08:48:35;;;;;;;24.65;17.27;;;;;;;-145.68;100.00;73012.13;10451867;28;20561;-75
2023/08/16 08:53:35;;;;;;;20.33;16.20;;;;;;;-145.68;100.00;73004.13;10455865;28;20216;-75
2023/08/16 08:58:39;;;;;;;19.10;15.85;;;;;;;-145.68;100.00;73050.09;10457439;28;20302;-75
2023/08/16 09:03:43;;;;;;;17.23;14.40;;;;;;;-145.68;100.00;73046.09;10456037;28;20195;-75
2023/08/16 09:08:45;;;;;;;20.25;16.30;;;;;;;-145.68;100.00;73012.13;10453501;28;20688;-75
2023/08/16 09:13:47;;;;;;;20.95;15.43;;;;;;;-145.68;100.00;73034.09;10454253;28;20204;-75
2023/08/16 09:18:48;;;;;;;18.23;14.68;;;;;;;-145.68;100.00;73004.13;10454963;28;20195;-76
2023/08/16 09:23:55;;;;;;;19.40;14.68;;;;;;;-145.68;100.00;73008.13;10453066;28;20234;-75
2023/08/16 09:28:59;;;;;;;16.60;13.68;;;;;;;-145.68;100.00;73004.13;10491708;28;20196;-75
2023/08/16 09:34:01;;;;;;;22.35;16.20;;;;;;;-145.68;100.00;73038.09;10494984;28;20221;-76
2023/08/16 09:39:10;;;;;;;16.55;13.10;;;;;;;-145.68;100.00;73042.09;10495101;28;20191;-75
2023/08/16 09:44:11;;;;;;;19.85;15.60;;;;;;;-145.68;100.00;73060.09;10494240;28;20313;-75
2023/08/16 09:49:11;;;;;;;22.77;16.95;;;;;;;-145.68;100.00;73100.06;10495277;28;20256;-75
2023/08/16 09:54:13;;;;;;;19.60;16.02;;;;;;;-145.68;100.00;73048.09;10494174;28;20277;-75
2023/08/16 09:59:14;;;;;;;17.60;14.75;;;;;;;-145.68;100.00;73032.09;10453764;28;20198;-75
2023/08/16 10:04:15;;;;;;;19.85;16.20;;;;;;;-145.68;100.00;72968.16;10450826;28;20192;-76
2023/08/16 10:09:16;;;;;;;16.42;14.10;;;;;;;-145.68;100.00;72920.19;10450213;28;20314;-76
2023/08/16 10:14:16;;;;;;;16.73;13.38;;;;;;;-145.68;100.00;72964.16;10450827;28;20345;-75
2023/08/16 10:19:19;;;;;;;15.70;13.93;;;;;;;-145.68;100.00;72984.13;10448758;28;20192;-76
2023/08/16 10:24:21;;;;;;;14.60;12.75;;;;;;;-145.68;100.00;72952.16;10447765;28;20235;-75
2023/08/16 10:29:22;;;;;;;17.10;14.73;;;;;;;-145.68;100.00;72884.22;10444377;28;20188;-76
2023/08/16 10:34:23;;;;;;;18.30;14.77;;;;;;;-145.68;100.00;72950.16;10449119;28;20227;-75
2023/08/16 10:39:24;;;;;;;21.45;14.93;;;;;;;-145.68;100.00;72968.16;10487454;28;20564;-75
2023/08/16 10:44:24;;;;;;;17.90;15.07;;;;;;;-145.68;100.00;72880.22;10471000;28;20604;-75
2023/08/16 10:49:35;;;;;;;16.35;13.45;;;;;;;-145.68;91.43;72790.28;10449995;28;20242;-75
2023/08/16 10:54:35;;;;;;;23.90;17.35;;;;;;;-145.68;84.22;72768.31;10449883;28;20244;-75
2023/08/16 10:59:40;;;;;;;20.70;15.02;;;;;;;-145.68;80.17;72684.38;10448651;28;20629;-75
2023/08/16 11:04:42;;;;;;;19.98;15.50;;;;;;;-145.68;87.05;72814.28;10448256;28;20196;-75
2023/08/16 11:10:37;;;;;;;18.70;14.32;;;;;;;-145.68;81.58;72716.34;10449189;28;20246;-75
2023/08/16 11:16:10;;;;;;;19.35;14.45;;;;;;;-145.68;76.25;72660.38;10446271;28;20238;-73
2023/08/16 11:21:21;;;;;;;19.90;15.40;;;;;;;-145.68;73.82;72660.38;10446806;28;20203;-75
2023/08/16 11:26:25;;;;;;;20.52;16.17;;;;;;;-145.68;76.17;72676.38;10441748;28;20235;-75
2023/08/16 11:31:26;;;;;;;23.80;17.58;;;;;;;-145.68;75.93;72678.38;10447747;28;20215;-74
2023/08/16 11:36:26;;;;;;;21.50;16.90;;;;;;;-145.68;72.67;72668.38;10446919;28;20263;-75
2023/08/16 11:41:27;;;;;;;24.50;17.13;;;;;;;-145.68;72.87;72662.38;10447861;28;20199;-74
2023/08/16 11:46:27;;;;;;;24.88;15.98;;;;;;;-145.68;74.48;72720.34;10447016;28;20223;-75
2023/08/16 11:51:28;;;;;;;20.88;15.35;;;;;;;-145.68;75.15;72676.38;10448078;28;20194;-75
2023/08/16 11:56:29;;;;;;;19.08;15.50;;;;;;;-145.68;75.29;72654.41;10448624;28;20195;-75
2023/08/16 12:01:30;;;;;;;20.05;16.23;;;;;;;-145.68;72.65;72618.44;10448084;28;20270;-74
2023/08/16 12:06:31;;;;;;;19.67;15.10;;;;;;;-145.68;73.07;72608.44;10447857;28;20196;-74
2023/08/16 12:11:32;;;;;;;16.67;14.05;;;;;;;-145.68;70.02;72552.47;10446874;28;20623;-74
2023/08/16 12:16:33;;;;;;;19.08;15.07;;;;;;;-145.68;62.98;72438.56;10446959;28;20203;-74
2023/08/16 12:21:33;;;;;;;16.08;13.82;;;;;;;-145.68;63.56;72468.56;10447156;28;20695;-75
2023/08/16 12:26:34;;;;;;;15.85;12.68;;;;;;;-145.68;63.34;72426.59;10450090;28;20674;-74
2023/08/16 12:31:34;;;;;;;15.27;13.68;;;;;;;-145.68;68.87;72562.47;10447542;28;20187;-74
2023/08/16 12:36:35;;;;;;;15.82;13.30;;;;;;;-145.68;67.72;72526.50;10449350;28;20207;-75
2023/08/16 12:41:35;;;;;;;13.88;12.48;;;;;;;-145.68;63.29;72424.59;10487215;28;20248;-75
2023/08/16 12:46:35;;;;;;;18.58;13.23;;;;;;;-145.68;62.35;72378.63;10489740;28;20221;-75
2023/08/16 12:51:37;;;;;;;15.35;12.43;;;;;;;-145.68;54.89;72186.81;10490460;28;20187;-75
2023/08/16 12:56:38;;;;;;;12.45;11.15;;;;;;;-145.68;53.34;72074.91;10490451;28;20191;-75
2023/08/16 13:01:38;;;;;;;14.55;9.45;;;;;;;-145.68;48.88;71841.13;10490300;28;20187;-76
2023/08/16 13:06:39;;;;;;;11.50;10.27;;;;;;;-145.68;48.25;71913.06;10467055;28;20733;-74
2023/08/16 13:11:39;;;;;;;8.68;7.78;;;;;;;-145.68;48.20;71817.16;10470197;28;20195;-75
2023/08/16 13:16:41;;;;;;;10.98;8.45;;;;;;;-145.68;45.63;71759.22;10447821;28;20196;-76
2023/08/16 13:21:41;;;;;;;9.45;7.95;;;;;;;-145.68;43.43;71623.38;10433411;28;20677;-76
2023/08/16 13:26:43;;;;;;;6.77;5.93;;;;;;;-145.68;40.46;71397.63;10419876;28;20192;-76
2023/08/16 13:31:44;;;;;;;7.25;6.45;;;;;;;-145.68;42.89;71613.38;10416763;28;20445;-75
2023/08/16 13:36:44;;;;;;;7.72;6.63;;;;;;;-145.68;44.17;71607.38;10455233;28;20214;-75
2023/08/16 13:41:45;;;;;;;7.85;5.88;;;;;;;-145.68;41.39;71449.56;10454977;28;20205;-75
2023/08/16 13:46:45;;;;;;;7.27;5.63;;;;;;;-145.68;41.91;71465.53;10454955;28;20215;-75
2023/08/16 13:51:45;;;;;;;12.57;6.03;;;;;;;-145.68;42.13;71581.41;10453499;28;20449;-75
2023/08/16 13:56:47;;;;;;;8.60;6.23;;;;;;;-145.68;41.86;71507.50;10452974;28;20191;-75
2023/08/16 14:01:47;;;;;;;6.47;5.85;;;;;;;-145.68;42.50;71601.41;10452230;28;20953;-75
2023/08/16 14:06:47;;;;;;;6.40;5.72;;;;;;;-145.68;43.84;71685.31;10453021;28;20279;-75
2023/08/16 14:11:48;;;;;;;6.88;5.72;;;;;;;-145.68;44.12;71693.28;10452346;28;20246;-76
2023/08/16 14:16:48;;;;;;;5.93;4.77;;;;;;;-145.68;41.51;71449.56;10483039;28;20198;-75
2023/08/16 14:21:48;;;;;;;6.90;5.43;;;;;;;-145.68;38.00;71197.84;10493759;28;20468;-75
2023/08/16 14:26:49;;;;;;;4.67;4.20;;;;;;;-145.68;37.15;71089.97;10493787;28;20434;-75
2023/08/16 14:31:49;;;;;;;6.05;5.03;;;;;;;-145.68;36.99;71181.88;10475618;28;20457;-75
2023/08/16 14:36:50;;;;;;;5.50;4.43;;;;;;;-145.68;39.64;71277.75;10452528;28;20245;-76
2023/08/16 14:41:50;;;;;;;8.15;4.88;;;;;;;-145.68;38.27;71155.91;10451086;28;20442;-76
2023/08/16 14:46:51;;;;;;;7.10;4.65;;;;;;;-145.68;38.74;71339.69;10450438;28;20215;-75
2023/08/16 14:51:51;;;;;;;7.40;4.47;;;;;;;-145.68;40.70;71457.56;10451135;28;20184;-75
2023/08/16 14:56:51;;;;;;;5.67;4.13;;;;;;;-145.68;38.97;71309.72;10450962;28;20441;-75
2023/08/16 15:01:52;;;;;;;6.37;4.80;;;;;;;-145.68;36.51;71125.94;10449713;28;20880;-75
2023/08/16 15:06:52;;;;;;;5.05;4.55;;;;;;;-145.68;38.06;71239.81;10450719;28;20445;-75
2023/08/16 15:11:53;;;;;;;9.23;5.00;;;;;;;-145.68;40.04;71365.66;10449843;28;20183;-75
2023/08/16 15:16:53;;;;;;;6.47;4.90;;;;;;;-145.68;38.29;71237.81;10448980;28;20445;-75
2023/08/16 15:21:53;;;;;;;5.80;4.68;;;;;;;-145.68;37.02;71139.91;10449323;28;20478;-76
2023/08/16 15:26:54;;;;;;;11.30;4.33;;;;;;;-145.68;37.26;71127.94;10449250;28;20233;-75
2023/08/16 15:31:54;;;;;;;7.80;4.10;;;;;;;-145.68;35.58;70946.16;10449727;28;20198;-75
2023/08/16 15:36:55;;;;;;;8.75;4.70;;;;;;;-145.68;36.20;71058.00;10449707;28;20210;-75
2023/08/16 15:41:55;;;;;;;6.87;4.13;;;;;;;-145.68;36.61;71085.97;10446293;28;20206;-75
2023/08/16 15:46:55;;;;;;;7.90;4.30;;;;;;;-145.68;38.97;71321.69;10449405;28;20957;-75
2023/08/16 15:51:56;;;;;;;6.53;4.83;;;;;;;-145.68;39.16;71359.66;10447194;28;20502;-76
2023/08/16 15:56:56;;;;;;;5.65;4.55;;;;;;;-145.68;37.42;71185.88;10447666;28;20425;-75
2023/08/16 16:01:56;;;;;;;7.22;4.88;;;;;;;-145.68;37.66;71189.84;10447457;28;20671;-75
2023/08/16 16:06:57;;;;;;;6.70;4.57;;;;;;;-145.68;37.25;71115.94;10447513;28;20190;-75
2023/08/16 16:11:57;;;;;;;8.40;5.07;;;;;;;-145.68;38.27;71279.75;10449149;28;20469;-75
2023/08/16 16:17:23;;;;;;;11.00;4.97;;;;;;;-145.68;37.63;71165.88;10450040;28;20268;-75
2023/08/16 16:22:24;;;;;;;6.47;4.93;;;;;;;-145.68;38.41;71319.72;10448960;28;20481;-76
2023/08/16 16:27:24;;;;;;;8.20;5.10;;;;;;;-145.68;42.68;71665.31;10448727;28;20191;-75
2023/08/16 16:32:24;;;;;;;8.83;5.57;;;;;;;-145.68;45.10;71873.09;10449771;28;20474;-74
2023/08/16 16:37:25;;;;;;;6.30;5.70;;;;;;;-145.68;47.45;71998.97;10449269;28;20442;-75
2023/08/16 16:42:25;;;;;;;7.67;5.43;;;;;;;-145.68;50.16;72104.88;10449708;28;20713;-74
2023/08/16 16:47:26;;;;;;;9.88;5.55;;;;;;;-145.68;51.54;72134.84;10448919;28;20454;-74
2023/08/16 16:52:26;;;;;;;6.57;5.97;;;;;;;-145.68;51.43;72102.88;10448937;28;20223;-75
2023/08/16 16:57:29;;;;;;;7.20;5.75;;;;;;;-145.68;52.08;72108.88;10448915;28;20198;-74
2023/08/16 17:02:29;;;;;;;11.43;6.15;;;;;;;-145.68;52.97;72158.84;10448985;28;20639;-74
2023/08/16 17:07:31;;;;;;;8.10;5.65;;;;;;;-145.68;55.04;72204.78;10449542;28;20192;-75
2023/08/16 17:12:31;;;;;;;9.95;6.03;;;;;;;-145.68;54.64;72204.78;10456787;28;20234;-74
2023/08/16 17:17:32;;;;;;;8.65;6.30;;;;;;;-145.68;55.61;72268.72;10457043;28;20282;-75
2023/08/16 17:22:36;;;;;;;7.13;6.10;;;;;;;-145.68;56.55;72296.69;10455133;28;20220;-74
2023/08/16 17:27:37;;;;;;;8.73;6.63;;;;;;;-145.68;57.42;72312.69;10455442;28;20199;-75
2023/08/16 17:32:37;;;;;;;8.02;7.00;;;;;;;-145.68;59.15;72380.63;10455733;28;20234;-74
2023/08/16 17:37:38;;;;;;;10.73;6.07;;;;;;;-145.68;60.38;72402.59;10493520;28;20237;-75
2023/08/16 17:42:38;;;;;;;9.35;6.10;;;;;;;-145.68;61.90;72428.59;10497095;28;20596;-74
2023/08/16 17:47:38;;;;;;;11.35;7.40;;;;;;;-145.68;61.89;72442.56;10496907;28;20215;-75
2023/08/16 17:52:39;;;;;;;7.80;6.60;;;;;;;-145.68;63.29;72454.56;10496629;28;20238;-75
2023/08/16 17:57:39;;;;;;;7.90;6.85;;;;;;;-145.68;65.84;72496.53;10496168;28;20655;-74
2023/08/16 18:02:40;;;;;;;9.38;7.10;;;;;;;-145.68;67.79;72528.50;10472616;28;20180;-73
2023/08/16 18:07:40;;;;;;;10.27;8.18;;;;;;;-145.68;73.32;72584.44;10452935;28;20234;-74
2023/08/16 18:12:40;;;;;;;10.30;8.35;;;;;;;-145.68;92.32;72800.28;10453332;28;20576;-74
2023/08/16 18:17:41;;;;;;;11.32;9.95;;;;;;;-145.68;100.00;72804.28;10453113;28;20206;-74
2023/08/16 18:22:41;;;;;;;9.93;9.02;;;;;;;-145.68;98.80;72816.25;10451311;28;20224;-74
2023/08/16 18:27:42;;;;;;;11.43;9.45;;;;;;;-145.68;100.00;72826.25;10452311;28;20294;-73
2023/08/16 18:32:42;;;;;;;14.73;8.85;;;;;;;-145.68;100.00;72854.25;10451896;28;20215;-74
2023/08/16 18:37:42;;;;;;;13.73;10.85;;;;;;;-145.68;100.00;72916.19;10453063;28;20188;-74
2023/08/16 18:42:43;;;;;;;14.90;11.60;;;;;;;-145.68;100.00;72976.16;10451851;28;20192;-74
2023/08/16 18:47:43;;;;;;;118.03;105.20;;;;;;;-145.68;100.00;72964.16;10451968;28;20208;-74
2023/08/16 18:52:44;;;;;;;12.93;10.18;;;;;;;-145.68;100.00;72984.13;10451289;28;20254;-74
2023/08/16 18:57:44;;;;;;;12.88;9.95;;;;;;;-145.68;100.00;73012.13;10451637;28;20245;-74
2023/08/16 19:02:44;;;;;;;17.83;15.20;;;;;;;-145.68;100.00;73042.09;10450896;28;20255;-74
2023/08/16 19:07:45;;;;;;;13.30;11.73;;;;;;;-145.68;100.00;73052.09;10451218;28;20192;-74
2023/08/16 19:12:45;;;;;;;14.00;11.35;;;;;;;-145.68;100.00;73064.09;10450778;28;20255;-74
2023/08/16 19:17:45;;;;;;;17.45;11.35;;;;;;;-145.68;100.00;73090.06;10450275;28;20188;-76
2023/08/16 19:22:46;;;;;;;14.23;12.77;;;;;;;-145.68;100.00;73138.03;10449489;28;20219;-75
2023/08/16 19:27:46;;;;;;;59.63;43.90;;;;;;;-145.68;100.00;73160.00;10448646;28;20199;-75
2023/08/16 19:32:47;;;;;;;15.40;13.82;;;;;;;-145.68;100.00;73174.00;10448273;28;20577;-74
2023/08/16 19:37:47;;;;;;;15.38;13.77;;;;;;;-145.68;100.00;73180.00;10448225;28;20717;-74
2023/08/16 19:42:48;;;;;;;32.30;26.10;;;;;;;-145.68;100.00;73176.00;10448019;28;20250;-75
2023/08/16 19:47:48;;;;;;;16.15;14.52;;;;;;;-145.68;100.00;73184.00;10447744;28;20302;-75
2023/08/16 19:52:51;;;;;;;20.55;17.77;;;;;;;-145.68;100.00;73211.97;10447842;28;20570;-75
2023/08/16 19:57:53;;;;;;;17.85;15.25;;;;;;;-145.68;100.00;73217.97;10448132;28;20548;-74
2023/08/16 20:02:53;;;;;;;22.83;20.10;;;;;;;-145.68;100.00;73211.97;10445590;28;20212;-75
2023/08/16 20:07:53;;;;;;;18.13;16.40;;;;;;;-145.68;100.00;73205.97;10447780;28;20566;-74
2023/08/16 20:12:54;;;;;;;21.50;15.02;;;;;;;-145.68;100.00;73200.00;10447108;28;20220;-74
2023/08/16 20:17:54;;;;;;;17.08;15.48;;;;;;;-145.68;100.00;73215.97;10443828;28;20528;-75
2023/08/16 20:22:54;;;;;;;22.00;19.20;;;;;;;-145.68;100.00;73203.97;10447101;28;20212;-75
2023/08/16 20:27:55;;;;;;;20.83;15.60;;;;;;;-145.68;100.00;73211.97;10446718;28;20247;-74
2023/08/16 20:32:55;;;;;;;40.03;31.48;;;;;;;-145.68;100.00;73239.97;10447070;28;20223;-75
2023/08/16 20:37:56;;;;;;;17.08;15.23;;;;;;;-145.68;100.00;73239.97;10447779;28;20188;-75
2023/08/16 20:42:56;;;;;;;19.33;17.35;;;;;;;-145.68;100.00;73235.97;10449631;28;20202;-75
2023/08/16 20:47:56;;;;;;;20.40;17.83;;;;;;;-145.68;100.00;73245.97;10456689;28;20210;-75
2023/08/16 20:52:57;;;;;;;21.70;18.15;;;;;;;-145.68;100.00;73259.94;10454871;28;20697;-75
2023/08/16 20:57:57;;;;;;;20.27;18.17;;;;;;;-145.68;100.00;73269.94;10455908;28;20200;-75
2023/08/16 21:02:57;;;;;;;21.10;19.08;;;;;;;-145.68;100.00;73261.94;10455299;28;20184;-75
2023/08/16 21:07:58;;;;;;;18.45;15.75;;;;;;;-145.68;100.00;73255.94;10439211;28;20188;-74
2023/08/16 21:12:58;;;;;;;21.55;18.80;;;;;;;-145.68;100.00;73281.94;10456661;28;20645;-75
2023/08/16 21:17:58;;;;;;;22.92;17.73;;;;;;;-145.68;100.00;73265.94;10457092;28;20192;-74
2023/08/16 21:22:59;;;;;;;18.85;16.58;;;;;;;-145.68;100.00;73277.94;10456042;28;20230;-75
2023/08/16 21:27:59;;;;;;;19.70;17.60;;;;;;;-145.68;100.00;73283.94;10456167;28;20235;-74
2023/08/16 21:33:00;;;;;;;21.02;18.25;;;;;;;-145.68;100.00;73309.91;10455645;28;20224;-75
2023/08/16 21:38:00;;;;;;;20.33;17.25;;;;;;;-145.68;100.00;73299.91;10455906;28;20184;-74
2023/08/16 21:43:00;;;;;;;21.25;17.70;;;;;;;-145.68;100.00;73289.94;10455172;28;20184;-74
2023/08/16 21:48:01;;;;;;;20.25;17.73;;;;;;;-145.68;100.00;73285.94;10455513;28;20214;-74
2023/08/16 21:53:02;;;;;;;19.25;16.38;;;;;;;-145.68;100.00;73267.94;10455027;28;20219;-74
2023/08/16 21:58:02;;;;;;;19.83;17.45;;;;;;;-145.68;100.00;73279.94;10453504;28;20199;-74
2023/08/16 22:03:03;;;;;;;21.50;16.77;;;;;;;-145.68;100.00;73303.91;10455457;28;20238;-74
2023/08/16 22:08:04;;;;;;;20.75;15.45;;;;;;;-145.68;100.00;73325.91;10453744;28;20223;-74
2023/08/16 22:13:04;;;;;;;19.35;16.55;;;;;;;-145.68;100.00;73339.91;10454141;28;20311;-75
2023/08/16 22:18:05;;;;;;;20.20;17.98;;;;;;;-145.68;100.00;73359.88;10454650;28;20210;-74